No particular awareness of the weather is required.    There are no Weather-warnings


Meteo18 Weather Cam more information Meteo18 Weather Cam


Thunder radar more information blitzortung!


Rain radar more information rain snow radar


Visit our other weather sites:

Template documentation
and downloads

And another site



Weather Underground History page Text

Daily Summary for April 2, 2017 Units:  Both    English   Metric
« Previous Day
Next Day »
Daily Weekly Monthly Yearly Custom
  High: Low: Average:
Temperature: 60.1 °F /  15.6 °C 39 °F /  3.9 °C 50.4 °F /  10.2 °C
Dew Point: 50.5 °F /  10.3 °C 37.9 °F /  3.3 °C 44.6 °F /  7 °C
Humidity: 97 % 60 % 82 %
Wind Speed: 9 mph /  14.5 km/h - 1.4 mph /  2.2 km/h
Wind Gust: 16 mph /  25.7 km/h - -
Wind:- - SSW
Pressure: 30.3 in /  1024.9 hPa 30 in /  1016.5 hPa -
Precipitation: 0 in /  0.0 mm    
Historical Graphs
 
 
Tabular Data for April 2, 2017
Time Temperature Dew Point Pressure Wind Wind Speed Wind Gust Humidity Rainfall Rate (Hourly)
00:02 46.8 °F /  8.2 °C 43.7 °F /  6.5 °C 30 in /  1016.5 hPa SSW 1 mph /  1.6 km/h   89 % 0 in /  0.0 mm
00:07 46.9 °F /  8.3 °C 43.5 °F /  6.4 °C 30 in /  1016.5 hPa SW 2 mph /  3.2 km/h 3 mph /  4.8 km/h 88 % 0 in /  0.0 mm
00:12 47.1 °F /  8.4 °C 43.5 °F /  6.4 °C 30 in /  1016.5 hPa SW 1 mph /  1.6 km/h 3 mph /  4.8 km/h 87 % 0 in /  0.0 mm
00:17 47.3 °F /  8.5 °C 43.7 °F /  6.5 °C 30 in /  1016.5 hPa WSW 1 mph /  1.6 km/h 3 mph /  4.8 km/h 87 % 0 in /  0.0 mm
00:22 47.5 °F /  8.6 °C 43.5 °F /  6.4 °C 30 in /  1016.5 hPa Calm   4 mph /  6.4 km/h 86 % 0 in /  0.0 mm
00:27 47.3 °F /  8.5 °C 43.3 °F /  6.3 °C 30 in /  1016.5 hPa Calm   2 mph /  3.2 km/h 86 % 0 in /  0.0 mm
00:32 47.1 °F /  8.4 °C 43.2 °F /  6.2 °C 30 in /  1016.5 hPa Calm   2 mph /  3.2 km/h 86 % 0 in /  0.0 mm
00:37 46.9 °F /  8.3 °C 43.3 °F /  6.3 °C 30 in /  1016.5 hPa West 1 mph /  1.6 km/h 2 mph /  3.2 km/h 87 % 0 in /  0.0 mm
00:42 47.1 °F /  8.4 °C 43.5 °F /  6.4 °C 30 in /  1016.5 hPa Calm   3 mph /  4.8 km/h 87 % 0 in /  0.0 mm
00:52 47.1 °F /  8.4 °C 43.2 °F /  6.2 °C 30 in /  1016.8 hPa Calm   3 mph /  4.8 km/h 86 % 0 in /  0.0 mm
00:57 46.9 °F /  8.3 °C 43 °F /  6.1 °C 30 in /  1016.5 hPa Calm   2 mph /  3.2 km/h 86 % 0 in /  0.0 mm
01:02 46.4 °F /  8.0 °C 42.8 °F /  6.0 °C 30 in /  1016.8 hPa NE 1 mph /  1.6 km/h 1 mph /  1.6 km/h 87 % 0 in /  0.0 mm
01:12 45.9 °F /  7.7 °C 42.8 °F /  6.0 °C 30 in /  1016.5 hPa Calm   1 mph /  1.6 km/h 89 % 0 in /  0.0 mm
01:17 45.9 °F /  7.7 °C 42.8 °F /  6.0 °C 30 in /  1016.8 hPa Calm   1 mph /  1.6 km/h 89 % 0 in /  0.0 mm
01:22 45.7 °F /  7.6 °C 42.6 °F /  5.9 °C 30 in /  1016.5 hPa Calm   1 mph /  1.6 km/h 89 % 0 in /  0.0 mm
01:32 45.3 °F /  7.4 °C 42.8 °F /  6.0 °C 30 in /  1016.8 hPa Calm     91 % 0 in /  0.0 mm
01:37 45.3 °F /  7.4 °C 42.6 °F /  5.9 °C 30 in /  1016.8 hPa Calm     90 % 0 in /  0.0 mm
01:42 45.1 °F /  7.3 °C 42.6 °F /  5.9 °C 30 in /  1016.8 hPa Calm     91 % 0 in /  0.0 mm
01:47 45.1 °F /  7.3 °C 42.6 °F /  5.9 °C 30 in /  1016.8 hPa Calm     91 % 0 in /  0.0 mm
01:52 45 °F /  7.2 °C 42.4 °F /  5.8 °C 30 in /  1016.8 hPa Calm   1 mph /  1.6 km/h 91 % 0 in /  0.0 mm
01:57 44.8 °F /  7.1 °C 42.3 °F /  5.7 °C 30 in /  1016.8 hPa Calm   1 mph /  1.6 km/h 91 % 0 in /  0.0 mm
02:02 44.6 °F /  7.0 °C 42.1 °F /  5.6 °C 30 in /  1016.8 hPa Calm   1 mph /  1.6 km/h 91 % 0 in /  0.0 mm
02:07 44.4 °F /  6.9 °C 42.3 °F /  5.7 °C 30 in /  1016.8 hPa Calm     92 % 0 in /  0.0 mm
02:12 44.4 °F /  6.9 °C 42.3 °F /  5.7 °C 30 in /  1016.8 hPa Calm     92 % 0 in /  0.0 mm
02:17 44.4 °F /  6.9 °C 42.3 °F /  5.7 °C 30 in /  1016.8 hPa SSE 1 mph /  1.6 km/h 2 mph /  3.2 km/h 92 % 0 in /  0.0 mm
02:22 44.2 °F /  6.8 °C 42.1 °F /  5.6 °C 30 in /  1016.8 hPa Calm   2 mph /  3.2 km/h 92 % 0 in /  0.0 mm
02:32 44.1 °F /  6.7 °C 41.9 °F /  5.5 °C 30 in /  1016.8 hPa Calm   1 mph /  1.6 km/h 92 % 0 in /  0.0 mm
02:37 44.1 °F /  6.7 °C 41.9 °F /  5.5 °C 30 in /  1016.8 hPa Calm     92 % 0 in /  0.0 mm
02:42 43.9 °F /  6.6 °C 41.7 °F /  5.4 °C 30 in /  1016.8 hPa Calm     92 % 0 in /  0.0 mm
02:47 43.7 °F /  6.5 °C 41.5 °F /  5.3 °C 30 in /  1016.8 hPa Calm     92 % 0 in /  0.0 mm
02:52 43.3 °F /  6.3 °C 41.2 °F /  5.1 °C 30 in /  1016.8 hPa Calm     92 % 0 in /  0.0 mm
02:57 43 °F /  6.1 °C 40.8 °F /  4.9 °C 30 in /  1016.8 hPa Calm     92 % 0 in /  0.0 mm
03:02 42.6 °F /  5.9 °C 40.8 °F /  4.9 °C 30 in /  1016.8 hPa Calm     93 % 0 in /  0.0 mm
03:07 42.8 °F /  6.0 °C 41 °F /  5.0 °C 30 in /  1016.8 hPa Calm     93 % 0 in /  0.0 mm
03:12 42.8 °F /  6.0 °C 41 °F /  5.0 °C 30 in /  1016.8 hPa Calm     93 % 0 in /  0.0 mm
03:17 42.6 °F /  5.9 °C 41 °F /  5.0 °C 30 in /  1016.8 hPa Calm     94 % 0 in /  0.0 mm
03:22 42.4 °F /  5.8 °C 40.8 °F /  4.9 °C 30 in /  1016.8 hPa Calm     94 % 0 in /  0.0 mm
03:27 42.4 °F /  5.8 °C 40.8 °F /  4.9 °C 30 in /  1016.8 hPa Calm     94 % 0 in /  0.0 mm
03:32 42.4 °F /  5.8 °C 40.8 °F /  4.9 °C 30 in /  1016.8 hPa Calm     94 % 0 in /  0.0 mm
03:37 42.4 °F /  5.8 °C 40.8 °F /  4.9 °C 30 in /  1016.8 hPa Calm     94 % 0 in /  0.0 mm
03:42 42.3 °F /  5.7 °C 40.6 °F /  4.8 °C 30 in /  1016.8 hPa Calm     94 % 0 in /  0.0 mm
03:47 42.3 °F /  5.7 °C 41 °F /  5.0 °C 30 in /  1017.2 hPa Calm     95 % 0 in /  0.0 mm
03:52 42.3 °F /  5.7 °C 41 °F /  5.0 °C 30 in /  1016.8 hPa Calm     95 % 0 in /  0.0 mm
03:57 42.1 °F /  5.6 °C 40.5 °F /  4.7 °C 30 in /  1016.8 hPa Calm     94 % 0 in /  0.0 mm
04:02 42.1 °F /  5.6 °C 40.8 °F /  4.9 °C 30 in /  1016.8 hPa Calm     95 % 0 in /  0.0 mm
04:07 41.9 °F /  5.5 °C 40.6 °F /  4.8 °C 30 in /  1016.8 hPa Calm     95 % 0 in /  0.0 mm
04:12 42.1 °F /  5.6 °C 40.8 °F /  4.9 °C 30 in /  1016.8 hPa Calm     95 % 0 in /  0.0 mm
04:17 42.3 °F /  5.7 °C 41 °F /  5.0 °C 30 in /  1016.8 hPa Calm     95 % 0 in /  0.0 mm
04:22 42.3 °F /  5.7 °C 41 °F /  5.0 °C 30 in /  1016.8 hPa Calm     95 % 0 in /  0.0 mm
04:27 42.3 °F /  5.7 °C 41 °F /  5.0 °C 30 in /  1016.8 hPa SSW 1 mph /  1.6 km/h 2 mph /  3.2 km/h 95 % 0 in /  0.0 mm
04:32 41.9 °F /  5.5 °C 40.3 °F /  4.6 °C 30 in /  1016.8 hPa Calm   2 mph /  3.2 km/h 94 % 0 in /  0.0 mm
04:37 41.4 °F /  5.2 °C 39.7 °F /  4.3 °C 30 in /  1016.8 hPa Calm   2 mph /  3.2 km/h 94 % 0 in /  0.0 mm
04:42 40.8 °F /  4.9 °C 39.2 °F /  4.0 °C 30 in /  1016.8 hPa Calm   1 mph /  1.6 km/h 94 % 0 in /  0.0 mm
04:47 40.8 °F /  4.9 °C 39.6 °F /  4.2 °C 30 in /  1016.8 hPa Calm   1 mph /  1.6 km/h 95 % 0 in /  0.0 mm
04:52 40.8 °F /  4.9 °C 39.6 °F /  4.2 °C 30 in /  1016.8 hPa Calm     95 % 0 in /  0.0 mm
04:57 40.8 °F /  4.9 °C 39.6 °F /  4.2 °C 30 in /  1016.8 hPa Calm     95 % 0 in /  0.0 mm
05:02 40.6 °F /  4.8 °C 39.4 °F /  4.1 °C 30 in /  1016.8 hPa Calm     95 % 0 in /  0.0 mm
05:12 41.2 °F /  5.1 °C 40.1 °F /  4.5 °C 30 in /  1017.2 hPa Calm     96 % 0 in /  0.0 mm
05:17 41.2 °F /  5.1 °C 40.1 °F /  4.5 °C 30 in /  1017.2 hPa Calm     96 % 0 in /  0.0 mm
05:22 41.2 °F /  5.1 °C 40.1 °F /  4.5 °C 30 in /  1017.2 hPa Calm     96 % 0 in /  0.0 mm
05:27 41.2 °F /  5.1 °C 40.1 °F /  4.5 °C 30 in /  1017.2 hPa Calm     96 % 0 in /  0.0 mm
05:32 41.2 °F /  5.1 °C 40.1 °F /  4.5 °C 30 in /  1017.2 hPa Calm     96 % 0 in /  0.0 mm
05:37 41.2 °F /  5.1 °C 40.1 °F /  4.5 °C 30 in /  1017.2 hPa Calm     96 % 0 in /  0.0 mm
05:42 40.8 °F /  4.9 °C 39.7 °F /  4.3 °C 30 in /  1017.2 hPa Calm   1 mph /  1.6 km/h 96 % 0 in /  0.0 mm
05:47 40.8 °F /  4.9 °C 39.7 °F /  4.3 °C 30 in /  1017.2 hPa SW 1 mph /  1.6 km/h 1 mph /  1.6 km/h 96 % 0 in /  0.0 mm
05:52 40.5 °F /  4.7 °C 39.2 °F /  4.0 °C 30 in /  1017.2 hPa Calm   1 mph /  1.6 km/h 95 % 0 in /  0.0 mm
05:57 39.7 °F /  4.3 °C 38.5 °F /  3.6 °C 30 in /  1017.2 hPa Calm   1 mph /  1.6 km/h 95 % 0 in /  0.0 mm
06:02 39.6 °F /  4.2 °C 38.3 °F /  3.5 °C 30.1 in /  1017.5 hPa Calm   1 mph /  1.6 km/h 95 % 0 in /  0.0 mm
06:07 39.7 °F /  4.3 °C 38.7 °F /  3.7 °C 30.1 in /  1017.5 hPa Calm     96 % 0 in /  0.0 mm
06:12 40.6 °F /  4.8 °C 39.9 °F /  4.4 °C 30.1 in /  1017.5 hPa Calm     97 % 0 in /  0.0 mm
06:17 40.3 °F /  4.6 °C 39.6 °F /  4.2 °C 30.1 in /  1017.5 hPa East 1 mph /  1.6 km/h   97 % 0 in /  0.0 mm
06:22 39.7 °F /  4.3 °C 38.5 °F /  3.6 °C 30.1 in /  1017.5 hPa Calm   2 mph /  3.2 km/h 95 % 0 in /  0.0 mm
06:27 39.7 °F /  4.3 °C 38.7 °F /  3.7 °C 30.1 in /  1017.5 hPa Calm   2 mph /  3.2 km/h 96 % 0 in /  0.0 mm
06:32 39.6 °F /  4.2 °C 38.5 °F /  3.6 °C 30.1 in /  1017.5 hPa Calm   2 mph /  3.2 km/h 96 % 0 in /  0.0 mm
06:37 39.4 °F /  4.1 °C 38.3 °F /  3.5 °C 30.1 in /  1017.5 hPa Calm     96 % 0 in /  0.0 mm
06:42 39.4 °F /  4.1 °C 38.3 °F /  3.5 °C 30.1 in /  1017.8 hPa Calm     96 % 0 in /  0.0 mm
06:47 39.4 °F /  4.1 °C 38.3 °F /  3.5 °C 30.1 in /  1017.5 hPa Calm     96 % 0 in /  0.0 mm
06:57 39 °F /  3.9 °C 37.9 °F /  3.3 °C 30.1 in /  1017.8 hPa ENE 1 mph /  1.6 km/h 1 mph /  1.6 km/h 96 % 0 in /  0.0 mm
07:02 39.4 °F /  4.1 °C 38.3 °F /  3.5 °C 30.1 in /  1017.8 hPa Calm   1 mph /  1.6 km/h 96 % 0 in /  0.0 mm
07:07 39.7 °F /  4.3 °C 38.7 °F /  3.7 °C 30.1 in /  1017.8 hPa Calm   1 mph /  1.6 km/h 96 % 0 in /  0.0 mm
07:12 39.7 °F /  4.3 °C 38.7 °F /  3.7 °C 30.1 in /  1017.8 hPa Calm   1 mph /  1.6 km/h 96 % 0 in /  0.0 mm
07:17 39.6 °F /  4.2 °C 38.5 °F /  3.6 °C 30.1 in /  1018.2 hPa Calm   1 mph /  1.6 km/h 96 % 0 in /  0.0 mm
07:22 39.7 °F /  4.3 °C 38.7 °F /  3.7 °C 30.1 in /  1018.2 hPa Calm     96 % 0 in /  0.0 mm
07:27 39.9 °F /  4.4 °C 38.8 °F /  3.8 °C 30.1 in /  1018.2 hPa Calm   1 mph /  1.6 km/h 96 % 0 in /  0.0 mm
07:32 39.9 °F /  4.4 °C 38.8 °F /  3.8 °C 30.1 in /  1018.2 hPa Calm   1 mph /  1.6 km/h 96 % 0 in /  0.0 mm
07:37 39.9 °F /  4.4 °C 38.8 °F /  3.8 °C 30.1 in /  1018.5 hPa Calm   1 mph /  1.6 km/h 96 % 0 in /  0.0 mm
07:42 39.9 °F /  4.4 °C 38.8 °F /  3.8 °C 30.1 in /  1018.5 hPa Calm   1 mph /  1.6 km/h 96 % 0 in /  0.0 mm
07:47 40.1 °F /  4.5 °C 39 °F /  3.9 °C 30.1 in /  1018.5 hPa Calm   1 mph /  1.6 km/h 96 % 0 in /  0.0 mm
07:52 40.3 °F /  4.6 °C 39.6 °F /  4.2 °C 30.1 in /  1018.5 hPa Calm   1 mph /  1.6 km/h 97 % 0 in /  0.0 mm
07:57 40.3 °F /  4.6 °C 39.2 °F /  4.0 °C 30.1 in /  1018.5 hPa Calm     96 % 0 in /  0.0 mm
08:02 40.3 °F /  4.6 °C 39.2 °F /  4.0 °C 30.1 in /  1018.5 hPa Calm     96 % 0 in /  0.0 mm
08:07 40.1 °F /  4.5 °C 39 °F /  3.9 °C 30.1 in /  1018.8 hPa Calm     96 % 0 in /  0.0 mm
08:12 40.1 °F /  4.5 °C 39 °F /  3.9 °C 30.1 in /  1018.8 hPa Calm     96 % 0 in /  0.0 mm
08:17 40.3 °F /  4.6 °C 39.2 °F /  4.0 °C 30.1 in /  1018.8 hPa Calm     96 % 0 in /  0.0 mm
08:22 40.5 °F /  4.7 °C 39.4 °F /  4.1 °C 30.1 in /  1018.8 hPa Calm     96 % 0 in /  0.0 mm
08:27 40.5 °F /  4.7 °C 39.4 °F /  4.1 °C 30.1 in /  1018.8 hPa Calm     96 % 0 in /  0.0 mm
08:32 40.6 °F /  4.8 °C 39.6 °F /  4.2 °C 30.1 in /  1018.8 hPa Calm     96 % 0 in /  0.0 mm
08:37 41.5 °F /  5.3 °C 40.8 °F /  4.9 °C 30.1 in /  1018.8 hPa Calm     97 % 0 in /  0.0 mm
08:42 42.1 °F /  5.6 °C 41.4 °F /  5.2 °C 30.1 in /  1019.2 hPa Calm     97 % 0 in /  0.0 mm
08:47 41.9 °F /  5.5 °C 40.8 °F /  4.9 °C 30.1 in /  1019.2 hPa Calm     96 % 0 in /  0.0 mm
08:57 42.3 °F /  5.7 °C 41.2 °F /  5.1 °C 30.1 in /  1019.2 hPa Calm     96 % 0 in /  0.0 mm
09:02 42.8 °F /  6.0 °C 42.1 °F /  5.6 °C 30.1 in /  1019.2 hPa Calm     97 % 0 in /  0.0 mm
09:07 43 °F /  6.1 °C 41.9 °F /  5.5 °C 30.1 in /  1019.2 hPa SW 1 mph /  1.6 km/h 1 mph /  1.6 km/h 96 % 0 in /  0.0 mm
09:12 43.2 °F /  6.2 °C 42.4 °F /  5.8 °C 30.1 in /  1019.5 hPa WSW 1 mph /  1.6 km/h 2 mph /  3.2 km/h 97 % 0 in /  0.0 mm
09:17 43.5 °F /  6.4 °C 42.8 °F /  6.0 °C 30.1 in /  1019.5 hPa SW 1 mph /  1.6 km/h 2 mph /  3.2 km/h 97 % 0 in /  0.0 mm
09:22 43.7 °F /  6.5 °C 43 °F /  6.1 °C 30.1 in /  1019.5 hPa Calm   2 mph /  3.2 km/h 97 % 0 in /  0.0 mm
09:27 44.1 °F /  6.7 °C 43.3 °F /  6.3 °C 30.1 in /  1019.5 hPa Calm   2 mph /  3.2 km/h 97 % 0 in /  0.0 mm
09:32 44.2 °F /  6.8 °C 43.5 °F /  6.4 °C 30.1 in /  1019.5 hPa WSW 1 mph /  1.6 km/h 3 mph /  4.8 km/h 97 % 0 in /  0.0 mm
09:37 44.6 °F /  7.0 °C 43.9 °F /  6.6 °C 30.1 in /  1019.5 hPa Calm   3 mph /  4.8 km/h 97 % 0 in /  0.0 mm
09:42 45 °F /  7.2 °C 44.2 °F /  6.8 °C 30.1 in /  1019.9 hPa Calm   2 mph /  3.2 km/h 97 % 0 in /  0.0 mm
09:47 45.1 °F /  7.3 °C 44.4 °F /  6.9 °C 30.1 in /  1019.9 hPa Calm   2 mph /  3.2 km/h 97 % 0 in /  0.0 mm
09:52 45.1 °F /  7.3 °C 44.1 °F /  6.7 °C 30.1 in /  1019.9 hPa Calm     96 % 0 in /  0.0 mm
09:57 45.5 °F /  7.5 °C 44.8 °F /  7.1 °C 30.1 in /  1019.9 hPa Calm     97 % 0 in /  0.0 mm
10:02 45.9 °F /  7.7 °C 44.8 °F /  7.1 °C 30.1 in /  1019.9 hPa Calm     96 % 0 in /  0.0 mm
10:07 46.8 °F /  8.2 °C 46 °F /  7.8 °C 30.1 in /  1019.9 hPa Calm     97 % 0 in /  0.0 mm
10:12 46.8 °F /  8.2 °C 45.7 °F /  7.6 °C 30.1 in /  1020.2 hPa Calm     96 % 0 in /  0.0 mm
10:17 47.8 °F /  8.8 °C 46.9 °F /  8.3 °C 30.1 in /  1020.2 hPa Calm     97 % 0 in /  0.0 mm
10:22 49.3 °F /  9.6 °C 48.4 °F /  9.1 °C 30.1 in /  1020.2 hPa Calm     97 % 0 in /  0.0 mm
10:27 49.5 °F /  9.7 °C 48.6 °F /  9.2 °C 30.1 in /  1020.2 hPa Calm     97 % 0 in /  0.0 mm
10:32 49.6 °F /  9.8 °C 48.6 °F /  9.2 °C 30.1 in /  1020.2 hPa Calm   1 mph /  1.6 km/h 96 % 0 in /  0.0 mm
10:37 49.8 °F /  9.9 °C 48.7 °F /  9.3 °C 30.1 in /  1020.2 hPa Calm   1 mph /  1.6 km/h 96 % 0 in /  0.0 mm
10:42 50.4 °F /  10.2 °C 49.3 °F /  9.6 °C 30.1 in /  1020.2 hPa Calm   2 mph /  3.2 km/h 96 % 0 in /  0.0 mm
10:47 50.7 °F /  10.4 °C 49.6 °F /  9.8 °C 30.1 in /  1020.5 hPa Calm   2 mph /  3.2 km/h 96 % 0 in /  0.0 mm
10:52 51.3 °F /  10.7 °C 50.2 °F /  10.1 °C 30.1 in /  1020.5 hPa Calm   2 mph /  3.2 km/h 96 % 0 in /  0.0 mm
11:02 51.6 °F /  10.9 °C 50.2 °F /  10.1 °C 30.1 in /  1020.5 hPa Calm   1 mph /  1.6 km/h 95 % 0 in /  0.0 mm
11:07 52 °F /  11.1 °C 50.4 °F /  10.2 °C 30.1 in /  1020.5 hPa Calm   1 mph /  1.6 km/h 94 % 0 in /  0.0 mm
11:12 52.5 °F /  11.4 °C 50.5 °F /  10.3 °C 30.1 in /  1020.5 hPa Calm   1 mph /  1.6 km/h 93 % 0 in /  0.0 mm
11:17 52.9 °F /  11.6 °C 50 °F /  10.0 °C 30.1 in /  1020.5 hPa Calm   2 mph /  3.2 km/h 90 % 0 in /  0.0 mm
11:22 52.9 °F /  11.6 °C 50 °F /  10.0 °C 30.2 in /  1020.9 hPa East 1 mph /  1.6 km/h 2 mph /  3.2 km/h 90 % 0 in /  0.0 mm
11:27 53.2 °F /  11.8 °C 50 °F /  10.0 °C 30.2 in /  1020.9 hPa East 2 mph /  3.2 km/h 4 mph /  6.4 km/h 89 % 0 in /  0.0 mm
11:32 53.2 °F /  11.8 °C 49.8 °F /  9.9 °C 30.2 in /  1020.9 hPa Calm   5 mph /  8.0 km/h 88 % 0 in /  0.0 mm
11:37 53.8 °F /  12.1 °C 50 °F /  10.0 °C 30.2 in /  1020.9 hPa ENE 2 mph /  3.2 km/h 5 mph /  8.0 km/h 87 % 0 in /  0.0 mm
11:42 54.1 °F /  12.3 °C 49.8 °F /  9.9 °C 30.2 in /  1020.9 hPa ENE 3 mph /  4.8 km/h 5 mph /  8.0 km/h 85 % 0 in /  0.0 mm
11:47 54.5 °F /  12.5 °C 50 °F /  10.0 °C 30.2 in /  1020.9 hPa Calm   5 mph /  8.0 km/h 85 % 0 in /  0.0 mm
11:52 54.9 °F /  12.7 °C 50.2 °F /  10.1 °C 30.2 in /  1020.9 hPa ENE 4 mph /  6.4 km/h 5 mph /  8.0 km/h 84 % 0 in /  0.0 mm
11:57 54.7 °F /  12.6 °C 49.6 °F /  9.8 °C 30.2 in /  1020.9 hPa ENE 2 mph /  3.2 km/h 6 mph /  9.7 km/h 83 % 0 in /  0.0 mm
12:02 54.9 °F /  12.7 °C 49.5 °F /  9.7 °C 30.2 in /  1020.9 hPa ENE 2 mph /  3.2 km/h 6 mph /  9.7 km/h 82 % 0 in /  0.0 mm
12:07 55.2 °F /  12.9 °C 49.5 °F /  9.7 °C 30.2 in /  1020.9 hPa Calm   6 mph /  9.7 km/h 81 % 0 in /  0.0 mm
12:12 55.8 °F /  13.2 °C 49.3 °F /  9.6 °C 30.2 in /  1020.9 hPa Calm   6 mph /  9.7 km/h 79 % 0 in /  0.0 mm
12:17 56.5 °F /  13.6 °C 48.7 °F /  9.3 °C 30.2 in /  1020.9 hPa NNW 3 mph /  4.8 km/h 6 mph /  9.7 km/h 75 % 0 in /  0.0 mm
12:22 56.7 °F /  13.7 °C 48.7 °F /  9.3 °C 30.2 in /  1020.9 hPa Calm   5 mph /  8.0 km/h 75 % 0 in /  0.0 mm
12:32 56.8 °F /  13.8 °C 48.9 °F /  9.4 °C 30.2 in /  1020.9 hPa Calm   5 mph /  8.0 km/h 75 % 0 in /  0.0 mm
12:37 57.2 °F /  14.0 °C 48.6 °F /  9.2 °C 30.2 in /  1020.9 hPa NNE 1 mph /  1.6 km/h 5 mph /  8.0 km/h 73 % 0 in /  0.0 mm
12:42 57.6 °F /  14.2 °C 48.9 °F /  9.4 °C 30.2 in /  1020.9 hPa ENE 2 mph /  3.2 km/h 4 mph /  6.4 km/h 73 % 0 in /  0.0 mm
12:47 57.6 °F /  14.2 °C 48.6 °F /  9.2 °C 30.2 in /  1020.9 hPa NE 3 mph /  4.8 km/h 5 mph /  8.0 km/h 72 % 0 in /  0.0 mm
12:52 57.7 °F /  14.3 °C 49.1 °F /  9.5 °C 30.2 in /  1020.9 hPa NNE 3 mph /  4.8 km/h 5 mph /  8.0 km/h 73 % 0 in /  0.0 mm
12:57 57.6 °F /  14.2 °C 48.6 °F /  9.2 °C 30.2 in /  1020.9 hPa NE 7 mph /  11.3 km/h 7 mph /  11.3 km/h 72 % 0 in /  0.0 mm
13:02 56.8 °F /  13.8 °C 48.2 °F /  9.0 °C 30.2 in /  1020.9 hPa NNE 3 mph /  4.8 km/h 11 mph /  17.7 km/h 73 % 0 in /  0.0 mm
13:12 56.8 °F /  13.8 °C 48.2 °F /  9.0 °C 30.2 in /  1020.9 hPa NNW 2 mph /  3.2 km/h 11 mph /  17.7 km/h 73 % 0 in /  0.0 mm
13:17 57.6 °F /  14.2 °C 47.5 °F /  8.6 °C 30.2 in /  1020.9 hPa WNW 3 mph /  4.8 km/h 7 mph /  11.3 km/h 69 % 0 in /  0.0 mm
13:22 57.7 °F /  14.3 °C 48.4 °F /  9.1 °C 30.2 in /  1020.9 hPa NNE 1 mph /  1.6 km/h 6 mph /  9.7 km/h 71 % 0 in /  0.0 mm
13:27 57.7 °F /  14.3 °C 47.3 °F /  8.5 °C 30.2 in /  1020.9 hPa ESE 1 mph /  1.6 km/h 6 mph /  9.7 km/h 68 % 0 in /  0.0 mm
13:32 58.1 °F /  14.5 °C 47.7 °F /  8.7 °C 30.2 in /  1020.9 hPa NE 2 mph /  3.2 km/h 6 mph /  9.7 km/h 68 % 0 in /  0.0 mm
13:37 57.9 °F /  14.4 °C 46.6 °F /  8.1 °C 30.2 in /  1020.9 hPa NNE 5 mph /  8.0 km/h 5 mph /  8.0 km/h 66 % 0 in /  0.0 mm
13:42 57.6 °F /  14.2 °C 45.9 °F /  7.7 °C 30.2 in /  1021.2 hPa North 2 mph /  3.2 km/h 7 mph /  11.3 km/h 65 % 0 in /  0.0 mm
13:47 58.1 °F /  14.5 °C 46.4 °F /  8.0 °C 30.2 in /  1021.2 hPa NE 5 mph /  8.0 km/h 7 mph /  11.3 km/h 65 % 0 in /  0.0 mm
13:52 57.9 °F /  14.4 °C 46.6 °F /  8.1 °C 30.2 in /  1021.2 hPa NNE 2 mph /  3.2 km/h 7 mph /  11.3 km/h 66 % 0 in /  0.0 mm
13:57 57.7 °F /  14.3 °C 47.7 °F /  8.7 °C 30.2 in /  1021.2 hPa NNW 4 mph /  6.4 km/h 6 mph /  9.7 km/h 69 % 0 in /  0.0 mm
14:02 57 °F /  13.9 °C 47.3 °F /  8.5 °C 30.2 in /  1021.2 hPa North 5 mph /  8.0 km/h 9 mph /  14.5 km/h 70 % 0 in /  0.0 mm
14:07 57 °F /  13.9 °C 47.7 °F /  8.7 °C 30.2 in /  1021.2 hPa NNW 1 mph /  1.6 km/h 9 mph /  14.5 km/h 71 % 0 in /  0.0 mm
14:12 57.2 °F /  14.0 °C 46.8 °F /  8.2 °C 30.2 in /  1021.2 hPa North 4 mph /  6.4 km/h 9 mph /  14.5 km/h 68 % 0 in /  0.0 mm
14:17 57.2 °F /  14.0 °C 47.8 °F /  8.8 °C 30.2 in /  1021.2 hPa NNW 5 mph /  8.0 km/h 10 mph /  16.1 km/h 71 % 0 in /  0.0 mm
14:22 57 °F /  13.9 °C 47.3 °F /  8.5 °C 30.2 in /  1021.2 hPa NW 5 mph /  8.0 km/h 10 mph /  16.1 km/h 70 % 0 in /  0.0 mm
14:32 57 °F /  13.9 °C 47.3 °F /  8.5 °C 30.2 in /  1021.2 hPa NNE 6 mph /  9.7 km/h 10 mph /  16.1 km/h 70 % 0 in /  0.0 mm
14:37 57.2 °F /  14.0 °C 47.1 °F /  8.4 °C 30.2 in /  1020.9 hPa North 2 mph /  3.2 km/h 10 mph /  16.1 km/h 69 % 0 in /  0.0 mm
14:42 57.2 °F /  14.0 °C 45.9 °F /  7.7 °C 30.2 in /  1020.9 hPa NNE 9 mph /  14.5 km/h 9 mph /  14.5 km/h 66 % 0 in /  0.0 mm
14:47 57.4 °F /  14.1 °C 46 °F /  7.8 °C 30.2 in /  1020.9 hPa North 1 mph /  1.6 km/h 9 mph /  14.5 km/h 66 % 0 in /  0.0 mm
14:52 57.6 °F /  14.2 °C 47.1 °F /  8.4 °C 30.2 in /  1020.9 hPa North 7 mph /  11.3 km/h 9 mph /  14.5 km/h 68 % 0 in /  0.0 mm
14:57 57.6 °F /  14.2 °C 45.9 °F /  7.7 °C 30.2 in /  1020.9 hPa NNE 4 mph /  6.4 km/h 11 mph /  17.7 km/h 65 % 0 in /  0.0 mm
15:02 57.7 °F /  14.3 °C 46 °F /  7.8 °C 30.2 in /  1021.2 hPa NW 4 mph /  6.4 km/h 11 mph /  17.7 km/h 65 % 0 in /  0.0 mm
15:07 57.7 °F /  14.3 °C 46.4 °F /  8.0 °C 30.2 in /  1021.2 hPa NNE 5 mph /  8.0 km/h 10 mph /  16.1 km/h 66 % 0 in /  0.0 mm
15:12 57.7 °F /  14.3 °C 46.4 °F /  8.0 °C 30.2 in /  1021.2 hPa NNW 4 mph /  6.4 km/h 10 mph /  16.1 km/h 66 % 0 in /  0.0 mm
15:17 57.9 °F /  14.4 °C 46.9 °F /  8.3 °C 30.2 in /  1021.2 hPa ENE 4 mph /  6.4 km/h 11 mph /  17.7 km/h 67 % 0 in /  0.0 mm
15:22 57.9 °F /  14.4 °C 46.9 °F /  8.3 °C 30.2 in /  1021.2 hPa NNW 6 mph /  9.7 km/h 11 mph /  17.7 km/h 67 % 0 in /  0.0 mm
15:32 58.1 °F /  14.5 °C 47.1 °F /  8.4 °C 30.2 in /  1021.2 hPa NNW 6 mph /  9.7 km/h 11 mph /  17.7 km/h 67 % 0 in /  0.0 mm
15:37 57.9 °F /  14.4 °C 47.5 °F /  8.6 °C 30.2 in /  1021.2 hPa NNW 5 mph /  8.0 km/h 11 mph /  17.7 km/h 68 % 0 in /  0.0 mm
15:42 57.9 °F /  14.4 °C 47.8 °F /  8.8 °C 30.2 in /  1021.2 hPa North 6 mph /  9.7 km/h 11 mph /  17.7 km/h 69 % 0 in /  0.0 mm
15:47 58.1 °F /  14.5 °C 47.7 °F /  8.7 °C 30.2 in /  1021.2 hPa NW 3 mph /  4.8 km/h 9 mph /  14.5 km/h 68 % 0 in /  0.0 mm
15:52 58.3 °F /  14.6 °C 46.6 °F /  8.1 °C 30.2 in /  1021.2 hPa NNE 7 mph /  11.3 km/h 9 mph /  14.5 km/h 65 % 0 in /  0.0 mm
15:57 58.3 °F /  14.6 °C 46.6 °F /  8.1 °C 30.2 in /  1021.2 hPa ENE 4 mph /  6.4 km/h 9 mph /  14.5 km/h 65 % 0 in /  0.0 mm
16:02 58.5 °F /  14.7 °C 46.8 °F /  8.2 °C 30.2 in /  1021.2 hPa NW 3 mph /  4.8 km/h 10 mph /  16.1 km/h 65 % 0 in /  0.0 mm
16:07 58.6 °F /  14.8 °C 47.7 °F /  8.7 °C 30.2 in /  1021.2 hPa NW 4 mph /  6.4 km/h 10 mph /  16.1 km/h 67 % 0 in /  0.0 mm
16:12 58.6 °F /  14.8 °C 47.7 °F /  8.7 °C 30.2 in /  1021.6 hPa NNW 5 mph /  8.0 km/h 10 mph /  16.1 km/h 67 % 0 in /  0.0 mm
16:17 58.5 °F /  14.7 °C 46.8 °F /  8.2 °C 30.2 in /  1021.6 hPa NNW 2 mph /  3.2 km/h 8 mph /  12.9 km/h 65 % 0 in /  0.0 mm
16:22 58.5 °F /  14.7 °C 47.5 °F /  8.6 °C 30.2 in /  1021.6 hPa NNE 2 mph /  3.2 km/h 8 mph /  12.9 km/h 67 % 0 in /  0.0 mm
16:27 58.3 °F /  14.6 °C 46.9 °F /  8.3 °C 30.2 in /  1021.2 hPa North 2 mph /  3.2 km/h 8 mph /  12.9 km/h 66 % 0 in /  0.0 mm
16:32 58.3 °F /  14.6 °C 47.3 °F /  8.5 °C 30.2 in /  1021.6 hPa NNW 6 mph /  9.7 km/h 8 mph /  12.9 km/h 67 % 0 in /  0.0 mm
16:37 58.3 °F /  14.6 °C 48.2 °F /  9.0 °C 30.2 in /  1021.6 hPa NNW 2 mph /  3.2 km/h 8 mph /  12.9 km/h 69 % 0 in /  0.0 mm
16:42 59 °F /  15.0 °C 48 °F /  8.9 °C 30.2 in /  1021.6 hPa WNW 2 mph /  3.2 km/h 8 mph /  12.9 km/h 67 % 0 in /  0.0 mm
16:47 60.1 °F /  15.6 °C 47.8 °F /  8.8 °C 30.2 in /  1021.6 hPa NNW 4 mph /  6.4 km/h 7 mph /  11.3 km/h 64 % 0 in /  0.0 mm
16:52 59.9 °F /  15.5 °C 46.4 °F /  8.0 °C 30.2 in /  1021.6 hPa WNW 4 mph /  6.4 km/h 8 mph /  12.9 km/h 61 % 0 in /  0.0 mm
16:57 59.7 °F /  15.4 °C 45.9 °F /  7.7 °C 30.2 in /  1021.6 hPa North 4 mph /  6.4 km/h 9 mph /  14.5 km/h 60 % 0 in /  0.0 mm
17:02 59.7 °F /  15.4 °C 45.9 °F /  7.7 °C 30.2 in /  1021.6 hPa ENE 2 mph /  3.2 km/h 9 mph /  14.5 km/h 60 % 0 in /  0.0 mm
17:12 59 °F /  15.0 °C 46.8 °F /  8.2 °C 30.2 in /  1021.6 hPa NE 9 mph /  14.5 km/h 13 mph /  20.9 km/h 64 % 0 in /  0.0 mm
17:17 58.3 °F /  14.6 °C 46.6 °F /  8.1 °C 30.2 in /  1021.6 hPa North 9 mph /  14.5 km/h 16 mph /  25.7 km/h 65 % 0 in /  0.0 mm
17:22 57.9 °F /  14.4 °C 45.9 °F /  7.7 °C 30.2 in /  1021.6 hPa North 4 mph /  6.4 km/h 16 mph /  25.7 km/h 64 % 0 in /  0.0 mm
17:27 57.7 °F /  14.3 °C 46.9 °F /  8.3 °C 30.2 in /  1021.6 hPa NW 7 mph /  11.3 km/h 16 mph /  25.7 km/h 67 % 0 in /  0.0 mm
17:32 57.2 °F /  14.0 °C 46.4 °F /  8.0 °C 30.2 in /  1021.6 hPa NNW 7 mph /  11.3 km/h 16 mph /  25.7 km/h 67 % 0 in /  0.0 mm
17:37 56.8 °F /  13.8 °C 45.7 °F /  7.6 °C 30.2 in /  1021.9 hPa NNW 3 mph /  4.8 km/h 12 mph /  19.3 km/h 66 % 0 in /  0.0 mm
17:42 56.7 °F /  13.7 °C 46.2 °F /  7.9 °C 30.2 in /  1021.9 hPa NNW 3 mph /  4.8 km/h 10 mph /  16.1 km/h 68 % 0 in /  0.0 mm
17:47 56.7 °F /  13.7 °C 46.2 °F /  7.9 °C 30.2 in /  1021.9 hPa NNW 3 mph /  4.8 km/h 8 mph /  12.9 km/h 68 % 0 in /  0.0 mm
17:52 56.7 °F /  13.7 °C 46.6 °F /  8.1 °C 30.2 in /  1021.9 hPa NNW 3 mph /  4.8 km/h 7 mph /  11.3 km/h 69 % 0 in /  0.0 mm
17:57 56.8 °F /  13.8 °C 46.8 °F /  8.2 °C 30.2 in /  1021.9 hPa North 5 mph /  8.0 km/h 7 mph /  11.3 km/h 69 % 0 in /  0.0 mm
18:02 57 °F /  13.9 °C 46.9 °F /  8.3 °C 30.2 in /  1021.9 hPa North 2 mph /  3.2 km/h 7 mph /  11.3 km/h 69 % 0 in /  0.0 mm
18:07 57.2 °F /  14.0 °C 47.1 °F /  8.4 °C 30.2 in /  1021.9 hPa NW 3 mph /  4.8 km/h 7 mph /  11.3 km/h 69 % 0 in /  0.0 mm
18:12 57.4 °F /  14.1 °C 47.3 °F /  8.5 °C 30.2 in /  1021.9 hPa NNW 1 mph /  1.6 km/h 7 mph /  11.3 km/h 69 % 0 in /  0.0 mm
18:17 57.6 °F /  14.2 °C 47.8 °F /  8.8 °C 30.2 in /  1022.2 hPa North 5 mph /  8.0 km/h 5 mph /  8.0 km/h 70 % 0 in /  0.0 mm
18:22 57.7 °F /  14.3 °C 47.3 °F /  8.5 °C 30.2 in /  1021.9 hPa Calm   6 mph /  9.7 km/h 68 % 0 in /  0.0 mm
18:27 57.9 °F /  14.4 °C 46.9 °F /  8.3 °C 30.2 in /  1022.2 hPa NW 1 mph /  1.6 km/h 7 mph /  11.3 km/h 67 % 0 in /  0.0 mm
18:32 58.3 °F /  14.6 °C 46.9 °F /  8.3 °C 30.2 in /  1022.2 hPa NNW 2 mph /  3.2 km/h 7 mph /  11.3 km/h 66 % 0 in /  0.0 mm
18:42 59 °F /  15.0 °C 46.4 °F /  8.0 °C 30.2 in /  1022.2 hPa NNE 3 mph /  4.8 km/h 6 mph /  9.7 km/h 63 % 0 in /  0.0 mm
18:47 59.2 °F /  15.1 °C 46.6 °F /  8.1 °C 30.2 in /  1022.2 hPa NW 4 mph /  6.4 km/h 8 mph /  12.9 km/h 63 % 0 in /  0.0 mm
18:52 59 °F /  15.0 °C 46.4 °F /  8.0 °C 30.2 in /  1022.2 hPa NNE 5 mph /  8.0 km/h 8 mph /  12.9 km/h 63 % 0 in /  0.0 mm
18:57 59 °F /  15.0 °C 46.4 °F /  8.0 °C 30.2 in /  1022.2 hPa ENE 5 mph /  8.0 km/h 8 mph /  12.9 km/h 63 % 0 in /  0.0 mm
19:02 58.8 °F /  14.9 °C 47.1 °F /  8.4 °C 30.2 in /  1022.2 hPa ENE 2 mph /  3.2 km/h 6 mph /  9.7 km/h 65 % 0 in /  0.0 mm
19:07 58.6 °F /  14.8 °C 47.3 °F /  8.5 °C 30.2 in /  1022.2 hPa NE 2 mph /  3.2 km/h 6 mph /  9.7 km/h 66 % 0 in /  0.0 mm
19:12 58.5 °F /  14.7 °C 47.5 °F /  8.6 °C 30.2 in /  1022.6 hPa ENE 2 mph /  3.2 km/h 6 mph /  9.7 km/h 67 % 0 in /  0.0 mm
19:17 57.9 °F /  14.4 °C 47.8 °F /  8.8 °C 30.2 in /  1022.6 hPa ENE 2 mph /  3.2 km/h 4 mph /  6.4 km/h 69 % 0 in /  0.0 mm
19:22 57.6 °F /  14.2 °C 47.8 °F /  8.8 °C 30.2 in /  1022.6 hPa ENE 2 mph /  3.2 km/h 4 mph /  6.4 km/h 70 % 0 in /  0.0 mm
19:27 57.4 °F /  14.1 °C 47.7 °F /  8.7 °C 30.2 in /  1022.6 hPa ENE 1 mph /  1.6 km/h 4 mph /  6.4 km/h 70 % 0 in /  0.0 mm
19:32 57.2 °F /  14.0 °C 47.8 °F /  8.8 °C 30.2 in /  1022.6 hPa NNE 2 mph /  3.2 km/h 4 mph /  6.4 km/h 71 % 0 in /  0.0 mm
19:37 57 °F /  13.9 °C 47.3 °F /  8.5 °C 30.2 in /  1022.6 hPa Calm   4 mph /  6.4 km/h 70 % 0 in /  0.0 mm
19:42 57 °F /  13.9 °C 47.3 °F /  8.5 °C 30.2 in /  1022.6 hPa Calm   3 mph /  4.8 km/h 70 % 0 in /  0.0 mm
19:47 57 °F /  13.9 °C 46.9 °F /  8.3 °C 30.2 in /  1022.6 hPa NE 1 mph /  1.6 km/h 3 mph /  4.8 km/h 69 % 0 in /  0.0 mm
19:52 57 °F /  13.9 °C 47.3 °F /  8.5 °C 30.2 in /  1022.6 hPa Calm   3 mph /  4.8 km/h 70 % 0 in /  0.0 mm
19:57 57 °F /  13.9 °C 46.6 °F /  8.1 °C 30.2 in /  1022.9 hPa North 1 mph /  1.6 km/h 4 mph /  6.4 km/h 68 % 0 in /  0.0 mm
20:02 57 °F /  13.9 °C 46.2 °F /  7.9 °C 30.2 in /  1022.9 hPa Calm   5 mph /  8.0 km/h 67 % 0 in /  0.0 mm
20:07 56.8 °F /  13.8 °C 45.7 °F /  7.6 °C 30.2 in /  1022.9 hPa Calm   5 mph /  8.0 km/h 66 % 0 in /  0.0 mm
20:12 56.7 °F /  13.7 °C 45.5 °F /  7.5 °C 30.2 in /  1022.9 hPa Calm   5 mph /  8.0 km/h 66 % 0 in /  0.0 mm
20:17 56.7 °F /  13.7 °C 45.9 °F /  7.7 °C 30.2 in /  1022.9 hPa Calm   2 mph /  3.2 km/h 67 % 0 in /  0.0 mm
20:22 56.5 °F /  13.6 °C 46 °F /  7.8 °C 30.2 in /  1022.9 hPa NW 1 mph /  1.6 km/h 2 mph /  3.2 km/h 68 % 0 in /  0.0 mm
20:32 56.1 °F /  13.4 °C 46.4 °F /  8.0 °C 30.2 in /  1023.2 hPa WNW 1 mph /  1.6 km/h 2 mph /  3.2 km/h 70 % 0 in /  0.0 mm
20:37 55.8 °F /  13.2 °C 46 °F /  7.8 °C 30.2 in /  1023.2 hPa Calm   2 mph /  3.2 km/h 70 % 0 in /  0.0 mm
20:42 55.8 °F /  13.2 °C 46 °F /  7.8 °C 30.2 in /  1023.2 hPa NW 1 mph /  1.6 km/h 2 mph /  3.2 km/h 70 % 0 in /  0.0 mm
20:52 55.9 °F /  13.3 °C 46.2 °F /  7.9 °C 30.2 in /  1023.2 hPa Calm   2 mph /  3.2 km/h 70 % 0 in /  0.0 mm
20:57 55.9 °F /  13.3 °C 45.9 °F /  7.7 °C 30.2 in /  1023.6 hPa Calm   2 mph /  3.2 km/h 69 % 0 in /  0.0 mm
21:02 55.9 °F /  13.3 °C 45.9 °F /  7.7 °C 30.2 in /  1023.6 hPa Calm   1 mph /  1.6 km/h 69 % 0 in /  0.0 mm
21:07 55.9 °F /  13.3 °C 46.2 °F /  7.9 °C 30.2 in /  1023.6 hPa Calm   1 mph /  1.6 km/h 70 % 0 in /  0.0 mm
21:12 55.8 °F /  13.2 °C 46 °F /  7.8 °C 30.2 in /  1023.6 hPa NW 1 mph /  1.6 km/h 1 mph /  1.6 km/h 70 % 0 in /  0.0 mm
21:17 55.8 °F /  13.2 °C 46 °F /  7.8 °C 30.2 in /  1023.6 hPa NW 1 mph /  1.6 km/h 2 mph /  3.2 km/h 70 % 0 in /  0.0 mm
21:22 55.8 °F /  13.2 °C 46.6 °F /  8.1 °C 30.2 in /  1023.9 hPa NW 2 mph /  3.2 km/h 2 mph /  3.2 km/h 71 % 0 in /  0.0 mm
21:27 55.8 °F /  13.2 °C 46.6 °F /  8.1 °C 30.2 in /  1023.9 hPa NNW 1 mph /  1.6 km/h 3 mph /  4.8 km/h 71 % 0 in /  0.0 mm
21:32 55.6 °F /  13.1 °C 46.8 °F /  8.2 °C 30.2 in /  1023.9 hPa North 1 mph /  1.6 km/h 3 mph /  4.8 km/h 72 % 0 in /  0.0 mm
21:37 55.4 °F /  13.0 °C 46.6 °F /  8.1 °C 30.2 in /  1023.9 hPa Calm   3 mph /  4.8 km/h 72 % 0 in /  0.0 mm
21:47 55.2 °F /  12.9 °C 46.8 °F /  8.2 °C 30.3 in /  1024.3 hPa WNW 1 mph /  1.6 km/h 3 mph /  4.8 km/h 73 % 0 in /  0.0 mm
21:52 54.9 °F /  12.7 °C 46.8 °F /  8.2 °C 30.3 in /  1024.3 hPa NNW 1 mph /  1.6 km/h 3 mph /  4.8 km/h 74 % 0 in /  0.0 mm
21:57 54.7 °F /  12.6 °C 46.6 °F /  8.1 °C 30.3 in /  1024.3 hPa NW 1 mph /  1.6 km/h 3 mph /  4.8 km/h 74 % 0 in /  0.0 mm
22:02 54.7 °F /  12.6 °C 46.6 °F /  8.1 °C 30.3 in /  1024.3 hPa NW 1 mph /  1.6 km/h 3 mph /  4.8 km/h 74 % 0 in /  0.0 mm
22:07 54.7 °F /  12.6 °C 46.6 °F /  8.1 °C 30.3 in /  1024.3 hPa NNW 3 mph /  4.8 km/h 4 mph /  6.4 km/h 74 % 0 in /  0.0 mm
22:12 54.5 °F /  12.5 °C 46.8 °F /  8.2 °C 30.3 in /  1024.3 hPa NW 1 mph /  1.6 km/h 4 mph /  6.4 km/h 75 % 0 in /  0.0 mm
22:17 54.3 °F /  12.4 °C 46.2 °F /  7.9 °C 30.3 in /  1024.3 hPa NW 1 mph /  1.6 km/h 4 mph /  6.4 km/h 74 % 0 in /  0.0 mm
22:22 54.1 °F /  12.3 °C 46.4 °F /  8.0 °C 30.3 in /  1024.3 hPa North 1 mph /  1.6 km/h 3 mph /  4.8 km/h 75 % 0 in /  0.0 mm
22:27 54 °F /  12.2 °C 46.2 °F /  7.9 °C 30.3 in /  1024.3 hPa NNW 2 mph /  3.2 km/h 3 mph /  4.8 km/h 75 % 0 in /  0.0 mm
22:32 53.8 °F /  12.1 °C 46 °F /  7.8 °C 30.3 in /  1024.3 hPa NW 1 mph /  1.6 km/h 2 mph /  3.2 km/h 75 % 0 in /  0.0 mm
22:37 53.8 °F /  12.1 °C 46 °F /  7.8 °C 30.3 in /  1024.6 hPa NNW 2 mph /  3.2 km/h 3 mph /  4.8 km/h 75 % 0 in /  0.0 mm
22:42 53.6 °F /  12.0 °C 45.9 °F /  7.7 °C 30.3 in /  1024.6 hPa NW 3 mph /  4.8 km/h 3 mph /  4.8 km/h 75 % 0 in /  0.0 mm
22:47 53.6 °F /  12.0 °C 45.9 °F /  7.7 °C 30.3 in /  1024.6 hPa NW 2 mph /  3.2 km/h 4 mph /  6.4 km/h 75 % 0 in /  0.0 mm
22:52 53.2 °F /  11.8 °C 45.5 °F /  7.5 °C 30.3 in /  1024.6 hPa NW 2 mph /  3.2 km/h 4 mph /  6.4 km/h 75 % 0 in /  0.0 mm
22:57 53.1 °F /  11.7 °C 45.3 °F /  7.4 °C 30.3 in /  1024.6 hPa NW 2 mph /  3.2 km/h 4 mph /  6.4 km/h 75 % 0 in /  0.0 mm
23:02 52.9 °F /  11.6 °C 45.5 °F /  7.5 °C 30.3 in /  1024.6 hPa NW 4 mph /  6.4 km/h 5 mph /  8.0 km/h 76 % 0 in /  0.0 mm
23:07 52.5 °F /  11.4 °C 45.1 °F /  7.3 °C 30.3 in /  1024.9 hPa NW 2 mph /  3.2 km/h 5 mph /  8.0 km/h 76 % 0 in /  0.0 mm
23:12 52.3 °F /  11.3 °C 45 °F /  7.2 °C 30.3 in /  1024.9 hPa Calm   4 mph /  6.4 km/h 76 % 0 in /  0.0 mm
23:17 52.3 °F /  11.3 °C 45 °F /  7.2 °C 30.3 in /  1024.9 hPa NW 3 mph /  4.8 km/h 4 mph /  6.4 km/h 76 % 0 in /  0.0 mm
23:22 52.2 °F /  11.2 °C 45.1 °F /  7.3 °C 30.3 in /  1024.9 hPa WNW 2 mph /  3.2 km/h 3 mph /  4.8 km/h 77 % 0 in /  0.0 mm
23:27 52 °F /  11.1 °C 45 °F /  7.2 °C 30.3 in /  1024.9 hPa NW 1 mph /  1.6 km/h 3 mph /  4.8 km/h 77 % 0 in /  0.0 mm
23:32 52 °F /  11.1 °C 45 °F /  7.2 °C 30.3 in /  1024.9 hPa NW 2 mph /  3.2 km/h 3 mph /  4.8 km/h 77 % 0 in /  0.0 mm
23:37 51.8 °F /  11.0 °C 44.8 °F /  7.1 °C 30.3 in /  1024.9 hPa NW 1 mph /  1.6 km/h 3 mph /  4.8 km/h 77 % 0 in /  0.0 mm
23:42 51.4 °F /  10.8 °C 44.8 °F /  7.1 °C 30.3 in /  1024.9 hPa WNW 2 mph /  3.2 km/h 3 mph /  4.8 km/h 78 % 0 in /  0.0 mm
23:52 51.4 °F /  10.8 °C 44.8 °F /  7.1 °C 30.3 in /  1024.9 hPa NW 1 mph /  1.6 km/h 3 mph /  4.8 km/h 78 % 0 in /  0.0 mm
23:57 51.4 °F /  10.8 °C 44.8 °F /  7.1 °C 30.3 in /  1024.9 hPa NW 1 mph /  1.6 km/h 3 mph /  4.8 km/h 78 % 0 in /  0.0 mm
Meteo18
Compliments of Weather Underground - 4 mb

Script developed by  Jim McMurry - jmcmurry@mwt.net Adapted for the template by  Wim van der Kuil - Leuven-Template.eu

You find our weather info also at:

European Weather Network

Weather Underground

Equipment we use:

Weather-station
Davis Vue

Weather-program
Meteohub

Weather-server
Raspberry PI 2 B+

Provider
1 and 1

Davis Vue

Meteohub

Raspberry PI 2 B+

1 and 1